Time;durP1;ratioP1;P1;durP2;ratioP2;P2;SDS_P1;SDS_P2;PMS_P1;PMS_P2;Temp;Humidity;BMP_temperature;BMP_pressure;BME280_temperature;BME280_humidity;BME280_pressure;Samples;Min_cycle;Max_cycle;Signal;HPM_P1;HPM_P2
2022/03/18 00:02:05;;;;;;;17.23;12.23;;;7.90;99.90;;;;;;5022088;28;20439;-66
2022/03/18 00:04:31;;;;;;;12.60;10.85;;;7.90;99.90;;;;;;5033996;28;20194;-67
2022/03/18 00:06:57;;;;;;;13.97;11.20;;;7.90;99.90;;;;;;5036027;28;20177;-64
2022/03/18 00:09:23;;;;;;;19.53;11.87;;;7.90;99.90;;;;;;5038321;28;20236;-65
2022/03/18 00:11:48;;;;;;;15.07;9.77;;;7.80;99.90;;;;;;5034384;28;20910;-64
2022/03/18 00:14:14;;;;;;;12.17;10.57;;;7.80;99.90;;;;;;5033850;28;20578;-65
2022/03/18 00:16:40;;;;;;;12.27;9.77;;;7.90;99.90;;;;;;5027084;28;20176;-65
2022/03/18 00:19:06;;;;;;;17.38;9.63;;;7.90;99.90;;;;;;5014200;28;20178;-65
2022/03/18 00:21:34;;;;;;;12.82;8.40;;;7.90;99.90;;;;;;5014147;28;20181;-67
2022/03/18 00:24:00;;;;;;;12.75;10.15;;;7.90;99.90;;;;;;5013955;28;20263;-65
2022/03/18 00:26:26;;;;;;;13.15;9.32;;;7.90;99.90;;;;;;5014197;28;20557;-66
2022/03/18 00:28:52;;;;;;;13.27;9.13;;;7.90;99.90;;;;;;5014263;28;20200;-66
2022/03/18 00:31:17;;;;;;;13.57;9.57;;;7.90;99.90;;;;;;5020175;28;20256;-65
2022/03/18 00:33:43;;;;;;;14.10;8.40;;;7.90;99.90;;;;;;5033525;28;20177;-66
2022/03/18 00:36:09;;;;;;;19.83;9.97;;;8.00;99.90;;;;;;5033848;28;20284;-68
2022/03/18 00:38:34;;;;;;;15.70;9.20;;;7.90;99.90;;;;;;5033924;28;20175;-65
2022/03/18 00:41:01;;;;;;;22.77;11.97;;;7.90;99.90;;;;;;5033739;28;20419;-66
2022/03/18 00:43:27;;;;;;;14.48;9.73;;;7.90;99.90;;;;;;5033262;28;20173;-65
2022/03/18 00:45:52;;;;;;;12.10;8.27;;;7.90;99.90;;;;;;5028714;28;20194;-66
2022/03/18 00:53:46;;;;;;;13.18;9.85;;;8.00;99.90;;;;;;5013588;28;20162;-67
2022/03/18 00:56:12;;;;;;;10.57;8.27;;;8.00;99.90;;;;;;5013791;28;20190;-66
2022/03/18 00:58:38;;;;;;;11.70;8.70;;;7.90;99.90;;;;;;5013835;28;20591;-67
2022/03/18 01:01:04;;;;;;;10.23;9.13;;;8.00;99.90;;;;;;5021941;28;20184;-64
2022/03/18 01:03:29;;;;;;;19.90;8.53;;;7.90;99.90;;;;;;5033004;28;20435;-66
2022/03/18 01:05:55;;;;;;;18.53;10.50;;;8.00;99.90;;;;;;5033397;28;20682;-67
2022/03/18 01:08:21;;;;;;;14.30;9.00;;;8.00;99.90;;;;;;5033737;28;20206;-64
2022/03/18 01:10:47;;;;;;;15.47;10.60;;;7.90;99.90;;;;;;5033526;28;20694;-66
2022/03/18 01:13:12;;;;;;;14.03;8.90;;;7.90;99.90;;;;;;5032882;28;20612;-64
2022/03/18 01:15:38;;;;;;;9.43;6.67;;;8.00;99.90;;;;;;5025865;28;20247;-65
2022/03/18 01:18:04;;;;;;;12.70;9.60;;;8.00;99.90;;;;;;5013690;28;20186;-65
2022/03/18 01:20:29;;;;;;;13.23;9.80;;;8.00;99.90;;;;;;5013629;28;20420;-67
2022/03/18 01:22:55;;;;;;;16.07;10.47;;;8.00;99.90;;;;;;5013262;28;20174;-66
2022/03/18 01:25:21;;;;;;;13.33;9.40;;;8.00;99.90;;;;;;5013146;28;20431;-67
2022/03/18 01:27:47;;;;;;;10.30;7.17;;;8.00;99.90;;;;;;5013441;28;20185;-67
2022/03/18 01:30:16;;;;;;;14.20;8.80;;;8.00;99.90;;;;;;5018979;28;20181;-67
2022/03/18 01:32:42;;;;;;;11.05;9.90;;;8.00;99.90;;;;;;5037153;28;20401;-66
2022/03/18 01:35:10;;;;;;;10.70;8.75;;;8.00;99.90;;;;;;5036723;28;20186;-64
2022/03/18 01:37:35;;;;;;;9.90;7.10;;;8.00;99.90;;;;;;5037103;28;20162;-65
2022/03/18 01:40:02;;;;;;;8.67;7.80;;;8.00;99.90;;;;;;5035845;28;20259;-67
2022/03/18 01:42:27;;;;;;;20.23;11.32;;;8.00;99.90;;;;;;5035622;28;20193;-65
2022/03/18 01:44:53;;;;;;;17.97;9.30;;;8.00;99.90;;;;;;5031137;28;20719;-66
2022/03/18 01:47:19;;;;;;;11.87;7.50;;;8.10;99.90;;;;;;5017234;28;20174;-65
2022/03/18 01:49:45;;;;;;;16.60;9.70;;;8.00;99.90;;;;;;5017021;28;20453;-66
2022/03/18 01:52:14;;;;;;;14.20;10.37;;;8.00;99.90;;;;;;5017235;28;20973;-66
2022/03/18 01:54:49;;;;;;;10.52;7.15;;;8.00;99.90;;;;;;5016648;28;20241;-64
2022/03/18 01:57:17;;;;;;;10.60;7.88;;;8.00;99.90;;;;;;5017161;28;20167;-65
2022/03/18 01:59:52;;;;;;;10.05;7.57;;;8.00;99.90;;;;;;5022413;28;20669;-65
2022/03/18 02:02:18;;;;;;;10.65;6.93;;;8.00;99.90;;;;;;5018813;28;20207;-65
2022/03/18 02:04:45;;;;;;;12.63;7.30;;;8.00;99.90;;;;;;5034556;28;20551;-65
2022/03/18 02:07:12;;;;;;;10.80;9.60;;;8.10;99.90;;;;;;5036813;28;20192;-64
2022/03/18 02:09:40;;;;;;;10.45;7.13;;;8.00;99.90;;;;;;5035268;28;20248;-67
2022/03/18 02:12:07;;;;;;;11.30;8.23;;;8.10;99.90;;;;;;5036571;28;20168;-66
2022/03/18 02:14:33;;;;;;;13.73;8.48;;;8.10;99.90;;;;;;5035952;28;20201;-64
2022/03/18 02:16:59;;;;;;;10.73;6.77;;;8.00;99.90;;;;;;5036514;28;20166;-66
2022/03/18 02:19:25;;;;;;;10.73;7.93;;;8.00;99.90;;;;;;5024918;28;20256;-65
2022/03/18 02:21:56;;;;;;;11.30;8.27;;;8.10;99.90;;;;;;5016505;28;20218;-65
2022/03/18 02:24:22;;;;;;;9.93;8.05;;;8.10;99.90;;;;;;5016115;28;20198;-68
2022/03/18 02:26:49;;;;;;;8.10;7.30;;;8.10;99.90;;;;;;5016749;28;20175;-65
2022/03/18 02:29:17;;;;;;;12.00;9.95;;;8.10;99.90;;;;;;5016351;28;20457;-65
2022/03/18 02:31:43;;;;;;;12.88;7.95;;;8.10;99.90;;;;;;5016255;28;20173;-67
2022/03/18 02:34:09;;;;;;;12.80;8.30;;;8.10;99.90;;;;;;5026630;28;20205;-66
2022/03/18 02:36:35;;;;;;;7.40;6.75;;;8.10;99.90;;;;;;5036167;28;20204;-67
2022/03/18 02:39:01;;;;;;;12.03;9.33;;;8.00;99.90;;;;;;5036178;28;20204;-65
2022/03/18 02:41:27;;;;;;;8.83;7.57;;;8.10;99.90;;;;;;5036017;28;20645;-66
2022/03/18 02:43:53;;;;;;;12.23;7.85;;;8.10;99.90;;;;;;5034877;28;20425;-67
2022/03/18 02:46:21;;;;;;;10.80;8.27;;;8.10;99.90;;;;;;5035673;28;20266;-67
2022/03/18 02:48:47;;;;;;;8.75;7.60;;;8.10;99.90;;;;;;5025467;28;20556;-65
2022/03/18 02:51:13;;;;;;;8.05;7.25;;;8.10;99.90;;;;;;5016044;28;20175;-66
2022/03/18 02:53:39;;;;;;;9.85;6.88;;;8.10;99.90;;;;;;5015481;28;20174;-64
2022/03/18 02:56:07;;;;;;;9.65;7.82;;;8.10;99.90;;;;;;5016617;28;20285;-65
2022/03/18 02:58:37;;;;;;;12.88;8.40;;;8.10;99.90;;;;;;5034703;28;20185;-66
2022/03/18 03:01:03;;;;;;;12.70;8.60;;;8.10;99.90;;;;;;5035744;28;20178;-65
2022/03/18 03:03:29;;;;;;;11.73;8.20;;;8.00;99.90;;;;;;5035060;28;20694;-66
2022/03/18 03:08:39;;;;;;;12.55;8.43;;;8.00;99.90;;;;;;5035783;28;20237;-65
2022/03/18 03:11:06;;;;;;;11.10;8.18;;;7.90;99.90;;;;;;5031602;28;20198;-67
2022/03/18 03:13:32;;;;;;;9.82;6.68;;;7.90;99.90;;;;;;5015086;28;20186;-64
2022/03/18 03:15:59;;;;;;;10.93;7.70;;;7.90;99.90;;;;;;5014126;28;20523;-67
2022/03/18 03:18:25;;;;;;;9.70;7.50;;;8.00;99.90;;;;;;5015381;28;20169;-66
2022/03/18 03:20:50;;;;;;;15.68;8.10;;;8.00;99.90;;;;;;5015467;28;20181;-67
2022/03/18 03:23:16;;;;;;;12.23;8.00;;;8.00;99.90;;;;;;5015474;28;20201;-63
2022/03/18 03:25:43;;;;;;;12.90;7.70;;;8.00;99.90;;;;;;5017431;28;20685;-67
2022/03/18 03:28:08;;;;;;;12.35;8.13;;;8.00;99.90;;;;;;5035140;28;20827;-66
2022/03/18 03:30:34;;;;;;;10.83;8.37;;;8.10;99.90;;;;;;5035308;28;20261;-65
2022/03/18 03:33:00;;;;;;;9.47;7.93;;;8.00;99.90;;;;;;5035400;28;20170;-67
2022/03/18 03:35:26;;;;;;;16.30;10.80;;;8.00;99.90;;;;;;5035455;28;20550;-65
2022/03/18 03:37:52;;;;;;;10.47;8.50;;;8.00;99.90;;;;;;5034401;28;20511;-65
2022/03/18 03:40:18;;;;;;;10.13;7.00;;;8.00;99.90;;;;;;5034511;28;20190;-67
2022/03/18 03:42:44;;;;;;;10.40;7.40;;;8.00;99.90;;;;;;5015849;28;20417;-66
2022/03/18 03:45:11;;;;;;;13.10;8.02;;;8.00;99.90;;;;;;5014585;28;20476;-63
2022/03/18 03:47:38;;;;;;;11.75;8.73;;;8.00;99.90;;;;;;5016887;28;20250;-64
2022/03/18 03:50:05;;;;;;;9.57;7.93;;;8.00;99.90;;;;;;5015324;28;20209;-63
2022/03/18 03:52:31;;;;;;;10.88;9.77;;;8.00;99.90;;;;;;5014970;28;20181;-65
2022/03/18 03:54:57;;;;;;;13.50;7.53;;;8.00;99.90;;;;;;5013201;28;20564;-65
2022/03/18 03:57:22;;;;;;;9.30;7.90;;;8.00;99.90;;;;;;5034566;28;20184;-67
2022/03/18 03:59:48;;;;;;;12.30;9.70;;;8.00;99.90;;;;;;5034497;28;20431;-65
2022/03/18 04:02:13;;;;;;;10.93;7.10;;;8.00;99.90;;;;;;5034294;28;20189;-67
2022/03/18 04:04:39;;;;;;;10.90;8.20;;;8.00;99.90;;;;;;5034442;28;20194;-67
2022/03/18 04:07:05;;;;;;;10.23;8.63;;;8.00;99.90;;;;;;5034361;28;20261;-65
2022/03/18 04:09:31;;;;;;;8.57;7.47;;;8.00;99.90;;;;;;5034099;28;20803;-66
2022/03/18 04:11:56;;;;;;;10.73;8.57;;;8.00;99.90;;;;;;5014055;28;20175;-64
2022/03/18 04:14:22;;;;;;;11.30;8.57;;;8.00;99.90;;;;;;5013999;28;20280;-66
2022/03/18 04:16:48;;;;;;;8.80;5.80;;;8.00;99.90;;;;;;5014540;28;20544;-65
2022/03/18 04:19:14;;;;;;;13.60;9.93;;;8.00;99.90;;;;;;5014205;28;20181;-66
2022/03/18 04:21:41;;;;;;;10.35;8.90;;;8.00;99.90;;;;;;5014499;28;20217;-65
2022/03/18 04:24:07;;;;;;;12.88;8.18;;;8.00;99.90;;;;;;5014009;28;20592;-66
2022/03/18 04:26:32;;;;;;;10.83;7.20;;;8.00;99.90;;;;;;5031677;28;20268;-66
2022/03/18 04:28:58;;;;;;;12.77;7.63;;;8.00;99.90;;;;;;5032250;28;20250;-67
2022/03/18 04:31:24;;;;;;;8.17;6.27;;;8.00;99.90;;;;;;5033989;28;20197;-65
2022/03/18 04:33:49;;;;;;;10.17;8.33;;;7.90;99.90;;;;;;5033515;28;20174;-65
2022/03/18 04:36:15;;;;;;;7.60;6.87;;;7.90;99.90;;;;;;5033858;28;20529;-64
2022/03/18 04:38:40;;;;;;;10.30;8.30;;;8.00;99.90;;;;;;5033688;28;20174;-65
2022/03/18 04:41:06;;;;;;;10.83;8.80;;;8.00;99.90;;;;;;5017557;28;20189;-65
2022/03/18 04:43:32;;;;;;;10.07;8.47;;;8.00;99.90;;;;;;5013532;28;20184;-67
2022/03/18 04:45:57;;;;;;;11.60;8.40;;;8.00;99.90;;;;;;5014065;28;20205;-63
2022/03/18 04:48:23;;;;;;;11.10;8.20;;;8.00;99.90;;;;;;5013855;28;20445;-65
2022/03/18 04:50:49;;;;;;;10.67;7.60;;;8.00;99.90;;;;;;5014043;28;20193;-65
2022/03/18 04:53:15;;;;;;;10.77;7.60;;;7.90;99.90;;;;;;5013309;28;21046;-66
2022/03/18 04:55:41;;;;;;;11.33;8.10;;;7.90;99.90;;;;;;5014126;28;20680;-66
2022/03/18 04:58:06;;;;;;;9.88;6.55;;;8.00;99.90;;;;;;5031719;28;20189;-66
2022/03/18 05:00:32;;;;;;;9.30;6.80;;;7.90;99.90;;;;;;5033618;28;20181;-66
2022/03/18 05:02:58;;;;;;;11.80;8.90;;;7.90;99.90;;;;;;5033311;28;20278;-65
2022/03/18 05:05:23;;;;;;;11.23;7.27;;;7.90;99.90;;;;;;5032913;28;20255;-66
2022/03/18 05:07:51;;;;;;;10.90;7.87;;;7.90;99.90;;;;;;5033391;28;20699;-65
2022/03/18 05:10:18;;;;;;;10.70;8.02;;;7.90;99.90;;;;;;5019498;28;20420;-64
2022/03/18 05:12:45;;;;;;;11.40;6.55;;;7.90;99.90;;;;;;5013560;28;20179;-68
2022/03/18 05:15:11;;;;;;;9.90;6.95;;;7.90;99.90;;;;;;5013204;28;20193;-66
2022/03/18 05:17:40;;;;;;;11.65;7.65;;;7.90;99.90;;;;;;5013636;28;20174;-66
2022/03/18 05:20:10;;;;;;;11.20;7.65;;;7.90;99.90;;;;;;5013686;28;20181;-64
2022/03/18 05:22:36;;;;;;;11.60;7.55;;;7.90;99.90;;;;;;5021375;28;20269;-65
2022/03/18 05:25:02;;;;;;;9.27;7.10;;;7.90;99.90;;;;;;5032846;28;20618;-67
2022/03/18 05:27:28;;;;;;;10.50;6.60;;;7.90;99.90;;;;;;5033020;28;20287;-65
2022/03/18 05:29:53;;;;;;;8.30;7.47;;;7.80;99.90;;;;;;5033160;28;20485;-65
2022/03/18 05:32:19;;;;;;;13.83;8.50;;;7.90;99.90;;;;;;5033398;28;20182;-66
2022/03/18 05:34:45;;;;;;;11.88;7.68;;;7.90;99.90;;;;;;5032613;28;20190;-66
2022/03/18 05:37:11;;;;;;;13.40;7.87;;;7.90;99.90;;;;;;5023304;28;20206;-65
2022/03/18 05:39:37;;;;;;;14.70;8.63;;;7.90;99.90;;;;;;5013323;28;20253;-65
2022/03/18 05:42:04;;;;;;;9.00;7.20;;;7.90;99.90;;;;;;5012070;28;20384;-65
2022/03/18 05:44:30;;;;;;;13.48;8.75;;;7.90;99.90;;;;;;5030878;28;20199;-65
2022/03/18 05:46:56;;;;;;;11.57;8.38;;;7.90;99.90;;;;;;5012216;28;20232;-66
2022/03/18 05:49:21;;;;;;;10.23;6.68;;;7.90;99.90;;;;;;5013290;28;20596;-65
2022/03/18 05:51:47;;;;;;;15.97;10.47;;;7.90;99.90;;;;;;5013427;28;20231;-67
2022/03/18 05:54:14;;;;;;;17.17;9.30;;;7.90;99.90;;;;;;5012737;28;20182;-64
2022/03/18 05:56:55;;;;;;;11.25;8.05;;;7.90;99.90;;;;;;5019031;28;20165;-65
2022/03/18 05:59:25;;;;;;;15.02;8.65;;;7.90;99.90;;;;;;5043439;28;20181;-66
2022/03/18 06:01:52;;;;;;;12.27;8.27;;;7.90;99.90;;;;;;5032864;28;20614;-65
2022/03/18 06:04:18;;;;;;;12.32;7.72;;;7.90;99.90;;;;;;5032609;28;20181;-66
2022/03/18 06:06:44;;;;;;;14.13;10.40;;;8.00;99.90;;;;;;5034844;28;20189;-63
2022/03/18 06:11:57;;;;;;;16.88;9.05;;;8.00;99.90;;;;;;5032234;28;20185;-67
2022/03/18 06:14:27;;;;;;;12.23;7.65;;;8.00;99.90;;;;;;5032215;28;20189;-64
2022/03/18 06:16:56;;;;;;;12.13;8.63;;;8.10;99.90;;;;;;5040083;28;20647;-65
2022/03/18 06:19:24;;;;;;;12.48;8.02;;;8.10;99.90;;;;;;5055804;28;20246;-64
2022/03/18 06:21:50;;;;;;;11.63;8.70;;;8.00;99.90;;;;;;5047766;28;20189;-63
2022/03/18 06:24:16;;;;;;;14.07;9.18;;;8.00;99.90;;;;;;5041413;28;20223;-64
2022/03/18 06:26:42;;;;;;;11.27;7.80;;;8.10;99.90;;;;;;5042345;28;20181;-65
2022/03/18 06:29:09;;;;;;;12.88;8.02;;;8.10;99.90;;;;;;5038777;28;20198;-68
2022/03/18 06:31:35;;;;;;;13.45;8.57;;;8.20;99.90;;;;;;5036144;28;20162;-66
2022/03/18 06:34:01;;;;;;;14.20;11.45;;;8.20;99.90;;;;;;5034358;28;20658;-64
2022/03/18 06:36:28;;;;;;;16.55;9.85;;;8.20;99.90;;;;;;5025332;28;20178;-67
2022/03/18 06:38:54;;;;;;;13.85;9.80;;;8.20;99.90;;;;;;5032423;28;20184;-65
2022/03/18 06:41:20;;;;;;;16.00;9.07;;;8.20;99.90;;;;;;5036054;28;20253;-70
2022/03/18 06:43:47;;;;;;;12.43;8.20;;;8.20;99.90;;;;;;5026249;28;20598;-64
2022/03/18 06:46:14;;;;;;;13.90;10.52;;;8.20;99.90;;;;;;5016012;28;20572;-62
2022/03/18 06:48:40;;;;;;;13.40;9.27;;;8.30;99.90;;;;;;5015972;28;20249;-65
2022/03/18 06:51:06;;;;;;;14.32;9.55;;;8.30;99.90;;;;;;5016098;28;20170;-68
2022/03/18 06:53:32;;;;;;;13.33;8.70;;;8.30;99.90;;;;;;5014293;28;20541;-69
2022/03/18 06:55:58;;;;;;;16.13;10.13;;;8.30;99.90;;;;;;5015659;28;20418;-67
2022/03/18 06:58:24;;;;;;;11.75;9.25;;;8.30;99.90;;;;;;5022630;28;20386;-67
2022/03/18 07:00:50;;;;;;;11.50;10.17;;;8.30;99.90;;;;;;5035371;28;20257;-69
2022/03/18 07:03:16;;;;;;;16.43;10.30;;;8.30;99.90;;;;;;5033781;28;20195;-69
2022/03/18 07:05:41;;;;;;;14.30;8.90;;;8.40;99.90;;;;;;5035431;28;20557;-67
2022/03/18 07:08:07;;;;;;;15.60;10.23;;;8.40;99.90;;;;;;5033950;28;20966;-69
2022/03/18 07:10:32;;;;;;;19.23;12.10;;;8.40;99.90;;;;;;5035462;28;20319;-68
2022/03/18 07:12:58;;;;;;;13.13;11.27;;;8.40;99.90;;;;;;5029696;28;20170;-69
2022/03/18 07:15:24;;;;;;;13.90;10.67;;;8.50;99.90;;;;;;5015069;28;20195;-69
2022/03/18 07:17:55;;;;;;;10.97;9.03;;;8.50;99.90;;;;;;5015471;28;20656;-71
2022/03/18 07:20:26;;;;;;;17.30;12.05;;;8.60;99.90;;;;;;5015632;28;20163;-68
2022/03/18 07:23:13;;;;;;;11.65;9.23;;;8.60;99.90;;;;;;5015335;28;20195;-68
2022/03/18 07:25:44;;;;;;;17.90;12.85;;;8.60;99.90;;;;;;5013781;28;20197;-69
2022/03/18 07:28:15;;;;;;;15.48;10.50;;;8.70;99.90;;;;;;5024046;28;20197;-67
2022/03/18 07:30:42;;;;;;;14.35;9.73;;;8.70;99.90;;;;;;5034270;28;20173;-68
2022/03/18 07:33:09;;;;;;;15.23;11.30;;;8.80;99.90;;;;;;5033565;28;20224;-69
2022/03/18 07:35:35;;;;;;;14.90;10.38;;;8.80;99.90;;;;;;5033145;28;20193;-68
2022/03/18 07:38:03;;;;;;;16.20;10.05;;;8.90;99.90;;;;;;5034285;28;20217;-67
2022/03/18 07:40:29;;;;;;;18.13;10.02;;;8.90;99.90;;;;;;5034641;28;20317;-68
2022/03/18 07:42:58;;;;;;;16.90;11.68;;;9.00;99.90;;;;;;5023155;28;20612;-68
2022/03/18 07:45:29;;;;;;;13.70;10.25;;;9.10;99.90;;;;;;5011165;28;20265;-67
2022/03/18 07:47:57;;;;;;;15.70;10.75;;;9.10;99.90;;;;;;5012948;28;20179;-68
2022/03/18 07:50:25;;;;;;;21.77;11.07;;;9.10;99.90;;;;;;5013145;28;20174;-68
2022/03/18 07:53:01;;;;;;;18.65;11.20;;;9.20;99.90;;;;;;5013036;28;20163;-67
2022/03/18 07:55:29;;;;;;;14.10;8.68;;;9.20;99.90;;;;;;5012780;28;20591;-67
2022/03/18 07:57:57;;;;;;;17.13;11.38;;;9.30;99.90;;;;;;5025449;28;20644;-66
2022/03/18 08:00:22;;;;;;;20.25;11.55;;;9.30;99.90;;;;;;5033349;28;20178;-70
2022/03/18 08:02:51;;;;;;;19.77;11.20;;;9.40;99.90;;;;;;5034070;28;20255;-69
2022/03/18 08:05:17;;;;;;;22.42;12.23;;;9.50;99.90;;;;;;5034004;28;20532;-68
2022/03/18 08:07:44;;;;;;;20.98;12.13;;;9.60;99.90;;;;;;5034609;28;20170;-69
2022/03/18 08:10:11;;;;;;;17.85;10.77;;;9.60;99.90;;;;;;5034302;28;20201;-69
2022/03/18 08:12:38;;;;;;;19.80;12.70;;;9.70;99.90;;;;;;5022543;28;20688;-68
2022/03/18 08:15:06;;;;;;;18.08;11.07;;;9.80;99.90;;;;;;5013877;28;20187;-67
2022/03/18 08:17:32;;;;;;;13.20;11.80;;;9.80;99.90;;;;;;5014789;28;20174;-68
2022/03/18 08:19:58;;;;;;;17.67;10.90;;;9.90;99.90;;;;;;5014488;28;20162;-69
2022/03/18 08:22:26;;;;;;;17.20;10.63;;;10.00;99.90;;;;;;5014271;28;20238;-66
2022/03/18 08:24:52;;;;;;;19.98;13.00;;;10.00;99.90;;;;;;5013867;28;20218;-67
2022/03/18 08:27:18;;;;;;;16.98;11.98;;;10.00;99.90;;;;;;5024586;28;20170;-68
2022/03/18 08:29:45;;;;;;;18.75;11.82;;;10.00;99.90;;;;;;5032443;28;20684;-67
2022/03/18 08:32:16;;;;;;;18.65;9.98;;;10.00;99.90;;;;;;5033845;28;20178;-68
2022/03/18 08:34:43;;;;;;;15.95;11.60;;;10.00;99.90;;;;;;5031794;28;20192;-68
2022/03/18 08:37:10;;;;;;;21.65;11.75;;;10.10;99.90;;;;;;5033784;28;20585;-67
2022/03/18 08:39:41;;;;;;;18.02;10.20;;;10.10;99.90;;;;;;5033875;28;20633;-68
2022/03/18 08:42:07;;;;;;;19.80;12.85;;;10.10;99.90;;;;;;5032014;28;20182;-69
2022/03/18 08:44:33;;;;;;;18.00;11.25;;;10.20;99.90;;;;;;5033097;28;20603;-69
2022/03/18 08:46:59;;;;;;;12.38;9.60;;;10.30;99.90;;;;;;5033757;28;20641;-67
2022/03/18 08:49:25;;;;;;;12.98;8.93;;;10.50;99.90;;;;;;5021652;28;20226;-66
2022/03/18 08:51:51;;;;;;;19.60;11.40;;;10.60;99.90;;;;;;5013622;28;20182;-68
2022/03/18 08:54:16;;;;;;;14.67;9.53;;;10.60;99.90;;;;;;5013045;28;20657;-68
2022/03/18 08:56:42;;;;;;;16.60;10.43;;;10.80;99.90;;;;;;5013511;28;20543;-67
2022/03/18 08:59:08;;;;;;;14.20;9.30;;;10.90;99.90;;;;;;5013438;28;20626;-67
2022/03/18 09:01:34;;;;;;;13.10;10.80;;;11.00;99.90;;;;;;5013770;28;20451;-68
2022/03/18 09:04:00;;;;;;;13.23;9.98;;;11.00;99.90;;;;;;5023151;28;20197;-67
2022/03/18 09:06:26;;;;;;;15.00;9.73;;;11.00;99.90;;;;;;5033075;28;20191;-68
2022/03/18 09:08:51;;;;;;;13.50;8.70;;;10.90;99.90;;;;;;5033207;28;20195;-68
2022/03/18 09:11:17;;;;;;;12.00;9.50;;;10.90;99.90;;;;;;5033260;28;20166;-68
2022/03/18 09:13:44;;;;;;;15.70;9.65;;;10.80;99.90;;;;;;5032802;28;20584;-65
2022/03/18 09:16:10;;;;;;;12.30;7.78;;;10.80;99.90;;;;;;5033045;28;20217;-67
2022/03/18 09:18:36;;;;;;;13.57;9.05;;;10.80;99.90;;;;;;5024070;28;20185;-66
2022/03/18 09:21:02;;;;;;;11.67;9.27;;;10.70;99.90;;;;;;5013618;28;20171;-69
2022/03/18 09:23:27;;;;;;;12.73;8.73;;;10.80;99.90;;;;;;5013002;28;20178;-68
2022/03/18 09:25:53;;;;;;;13.87;8.70;;;10.80;99.90;;;;;;5013049;28;20448;-71
2022/03/18 09:28:20;;;;;;;13.77;9.02;;;10.80;99.90;;;;;;5013239;28;20558;-68
2022/03/18 09:30:46;;;;;;;10.45;8.32;;;10.80;99.90;;;;;;5013134;28;20671;-66
2022/03/18 09:33:12;;;;;;;12.50;8.05;;;10.80;99.90;;;;;;5020064;28;20220;-68
2022/03/18 09:35:38;;;;;;;11.80;9.30;;;10.90;99.90;;;;;;5031511;28;20189;-68
2022/03/18 09:38:04;;;;;;;14.20;9.02;;;10.90;99.90;;;;;;5033086;28;20406;-67
2022/03/18 09:40:31;;;;;;;15.18;9.95;;;10.90;99.90;;;;;;5033001;28;20170;-68
2022/03/18 09:43:08;;;;;;;13.73;8.40;;;11.00;99.90;;;;;;5014285;28;20235;-68
2022/03/18 09:45:36;;;;;;;15.33;9.90;;;11.10;99.90;;;;;;5013080;28;20333;-68
2022/03/18 09:48:06;;;;;;;20.52;10.50;;;11.30;99.90;;;;;;5013236;28;20783;-68
2022/03/18 09:50:32;;;;;;;16.55;9.90;;;11.50;99.90;;;;;;5013243;28;20335;-68
2022/03/18 09:52:59;;;;;;;9.93;8.43;;;11.80;99.90;;;;;;5014195;28;20177;-68
2022/03/18 09:55:25;;;;;;;15.30;9.37;;;11.90;99.90;;;;;;5016516;28;20410;-66
2022/03/18 09:57:52;;;;;;;14.00;9.57;;;12.10;99.90;;;;;;5018702;28;20418;-68
2022/03/18 10:00:18;;;;;;;15.70;8.47;;;12.20;99.90;;;;;;5016708;28;20406;-68
2022/03/18 10:02:43;;;;;;;12.90;9.77;;;12.40;99.90;;;;;;5016394;28;20866;-67
2022/03/18 10:05:14;;;;;;;13.37;9.83;;;12.90;99.90;;;;;;5016291;28;20573;-71
2022/03/18 10:07:51;;;;;;;13.50;9.20;;;13.20;99.90;;;;;;5016398;28;20205;-70
2022/03/18 10:10:17;;;;;;;12.47;8.23;;;13.40;99.90;;;;;;5016831;28;20851;-67
2022/03/18 10:12:45;;;;;;;11.00;8.53;;;13.40;99.90;;;;;;5036246;28;20371;-69
2022/03/18 10:15:14;;;;;;;12.70;8.47;;;13.50;99.90;;;;;;5034037;28;20498;-70
2022/03/18 10:17:50;;;;;;;11.20;8.97;;;13.40;99.70;;;;;;5036067;28;20821;-69
2022/03/18 10:20:26;;;;;;;16.13;10.00;;;13.50;99.90;;;;;;5036312;28;20397;-68
2022/03/18 10:22:53;;;;;;;12.60;10.40;;;13.90;99.70;;;;;;5035978;28;20409;-65
2022/03/18 10:25:39;;;;;;;11.97;9.50;;;14.20;98.50;;;;;;5032479;28;20494;-70
2022/03/18 10:28:08;;;;;;;17.27;8.90;;;14.30;97.70;;;;;;5016250;28;20484;-68
2022/03/18 10:30:35;;;;;;;10.03;8.10;;;14.30;97.30;;;;;;5017092;28;20415;-68
2022/03/18 10:33:01;;;;;;;12.33;9.47;;;14.10;97.60;;;;;;5015751;28;20884;-67
2022/03/18 10:38:30;;;;;;;12.87;8.80;;;13.70;98.30;;;;;;5016178;28;20436;-67
2022/03/18 10:40:57;;;;;;;12.57;9.10;;;13.80;98.30;;;;;;5025527;28;20421;-67
2022/03/18 10:43:22;;;;;;;12.80;8.83;;;13.90;98.20;;;;;;5035211;28;20404;-70
2022/03/18 10:46:05;;;;;;;14.50;10.00;;;13.90;98.10;;;;;;5035353;28;20432;-67
2022/03/18 10:48:31;;;;;;;14.70;9.57;;;14.10;97.80;;;;;;5035511;28;20498;-69
2022/03/18 10:51:04;;;;;;;10.00;7.67;;;14.20;97.40;;;;;;5035467;28;20401;-69
2022/03/18 10:53:32;;;;;;;12.20;9.37;;;14.00;97.00;;;;;;5035130;28;20424;-68
2022/03/18 10:56:01;;;;;;;15.30;9.73;;;13.80;97.20;;;;;;5021374;28;20420;-68
2022/03/18 10:58:30;;;;;;;15.13;10.03;;;13.60;97.60;;;;;;5029913;28;20390;-68
2022/03/18 11:00:59;;;;;;;17.80;10.83;;;13.40;98.40;;;;;;5043559;28;20408;-70
2022/03/18 11:03:25;;;;;;;12.93;9.50;;;13.40;98.20;;;;;;5041739;28;21051;-68
2022/03/18 11:05:51;;;;;;;14.20;9.77;;;13.40;98.90;;;;;;5043431;28;20880;-64
2022/03/18 11:08:23;;;;;;;15.90;10.70;;;13.40;98.70;;;;;;5048081;28;20539;-68
2022/03/18 11:11:07;;;;;;;15.90;10.10;;;13.40;98.80;;;;;;5041718;28;20394;-65
2022/03/18 11:13:46;;;;;;;14.03;9.80;;;13.30;99.00;;;;;;5039010;28;20950;-66
2022/03/18 11:16:15;;;;;;;16.30;11.33;;;13.10;99.70;;;;;;5039321;28;21332;-68
2022/03/18 11:18:42;;;;;;;11.97;9.53;;;13.10;99.40;;;;;;5042955;28;20823;-68
2022/03/18 11:21:10;;;;;;;15.50;9.83;;;13.20;99.20;;;;;;5043105;28;20440;-67
2022/03/18 11:23:39;;;;;;;13.17;9.10;;;13.20;99.20;;;;;;5042902;28;20500;-65
2022/03/18 11:26:06;;;;;;;12.40;8.80;;;13.20;99.30;;;;;;5039877;28;20432;-67
2022/03/18 11:28:32;;;;;;;11.93;9.60;;;13.20;99.20;;;;;;5044032;28;20446;-68
2022/03/18 11:31:06;;;;;;;10.70;8.97;;;13.10;99.60;;;;;;5043269;28;20412;-69
2022/03/18 11:33:35;;;;;;;14.50;10.07;;;13.00;99.40;;;;;;5039903;28;20227;-70
2022/03/18 11:36:02;;;;;;;11.63;9.20;;;12.90;99.90;;;;;;5042580;28;20405;-68
2022/03/18 11:38:51;;;;;;;17.27;10.30;;;12.80;99.70;;;;;;5043989;28;20415;-67
2022/03/18 11:41:19;;;;;;;13.57;10.30;;;12.80;99.90;;;;;;5041847;28;20477;-67
2022/03/18 11:43:44;;;;;;;17.27;11.60;;;12.70;99.90;;;;;;5041717;28;20411;-68
2022/03/18 11:46:13;;;;;;;12.17;9.47;;;12.50;99.80;;;;;;5039313;28;20458;-68
2022/03/18 11:49:02;;;;;;;13.10;9.90;;;12.40;99.90;;;;;;5042621;28;20236;-65
2022/03/18 11:51:37;;;;;;;11.97;9.20;;;12.40;99.90;;;;;;5043428;28;20713;-68
2022/03/18 11:54:12;;;;;;;17.87;11.80;;;12.40;99.90;;;;;;5040048;28;20414;-65
2022/03/18 11:56:48;;;;;;;16.97;11.67;;;12.50;99.90;;;;;;5014454;28;20815;-67
2022/03/18 11:59:27;;;;;;;17.60;10.73;;;12.50;99.90;;;;;;5014328;28;20763;-67
2022/03/18 12:02:05;;;;;;;14.43;10.13;;;12.50;99.90;;;;;;5036512;28;20430;-64
2022/03/18 12:04:33;;;;;;;15.37;9.57;;;12.50;99.90;;;;;;5053528;28;20437;-65
2022/03/18 12:07:19;;;;;;;13.30;10.47;;;12.50;99.90;;;;;;5054064;28;20407;-66
2022/03/18 12:09:52;;;;;;;15.77;10.30;;;12.60;99.90;;;;;;5039615;28;20797;-65
2022/03/18 12:12:20;;;;;;;16.83;11.93;;;12.80;99.90;;;;;;5034164;28;20745;-67
2022/03/18 12:14:47;;;;;;;15.40;11.23;;;12.80;99.70;;;;;;5048448;28;20463;-67
2022/03/18 12:17:13;;;;;;;16.47;10.03;;;12.80;99.60;;;;;;5041327;28;20472;-66
2022/03/18 12:19:39;;;;;;;15.70;12.10;;;12.80;99.50;;;;;;5049426;28;20407;-66
2022/03/18 12:22:06;;;;;;;13.20;9.57;;;12.80;99.50;;;;;;5053594;28;20435;-66
2022/03/18 12:24:32;;;;;;;14.67;11.07;;;12.70;99.90;;;;;;5053380;28;20196;-67
2022/03/18 12:27:00;;;;;;;13.80;10.70;;;12.70;99.60;;;;;;5041733;28;20409;-69
2022/03/18 12:29:28;;;;;;;14.40;10.93;;;12.70;99.50;;;;;;5045554;28;20446;-67
2022/03/18 12:32:09;;;;;;;15.47;11.57;;;12.70;99.50;;;;;;5047135;28;20446;-68
2022/03/18 12:34:47;;;;;;;18.60;11.23;;;12.70;99.20;;;;;;5041000;28;20438;-65
2022/03/18 12:37:25;;;;;;;15.50;10.87;;;12.70;99.10;;;;;;5053987;28;20414;-66
2022/03/18 12:40:08;;;;;;;18.13;10.50;;;12.70;99.20;;;;;;5026213;28;20972;-68
2022/03/18 12:42:54;;;;;;;18.53;11.60;;;12.60;98.80;;;;;;5013822;28;20403;-69
2022/03/18 12:45:32;;;;;;;12.87;10.57;;;12.60;98.70;;;;;;5013517;28;20841;-70
2022/03/18 12:48:03;;;;;;;16.70;11.70;;;12.70;98.90;;;;;;5013641;28;20487;-68
2022/03/18 12:50:31;;;;;;;12.23;9.10;;;12.60;98.40;;;;;;5013566;28;20435;-69
2022/03/18 12:52:57;;;;;;;13.70;9.80;;;12.60;98.50;;;;;;5012257;28;20178;-70
2022/03/18 12:55:24;;;;;;;18.40;11.27;;;12.70;98.40;;;;;;5032441;28;20794;-67
2022/03/18 12:57:51;;;;;;;13.27;9.20;;;12.70;98.20;;;;;;5033499;28;20379;-68